Time;durP1;ratioP1;P1;durP2;ratioP2;P2;SDS_P1;SDS_P2;PMS_P1;PMS_P2;Temp;Humidity;BMP_temperature;BMP_pressure;BME280_temperature;BME280_humidity;BME280_pressure;Samples;Min_cycle;Max_cycle;Signal;HPM_P1;HPM_P2
2021/01/28 00:00:41;;;;;;;12.20;7.95;;;2.80;84.30;;;0.71;83.47;95704.75;5027992;28;20038;-69
2021/01/28 00:03:09;;;;;;;10.82;7.50;;;2.80;84.20;;;0.71;84.50;95700.41;5030005;28;20060;-68
2021/01/28 00:05:36;;;;;;;10.95;7.25;;;2.80;84.10;;;0.70;83.97;95692.78;5029638;28;20032;-67
2021/01/28 00:08:03;;;;;;;10.15;7.03;;;2.80;84.00;;;0.71;84.13;95697.81;5011864;28;20025;-69
2021/01/28 00:10:29;;;;;;;10.40;7.28;;;2.70;84.20;;;0.72;84.21;95693.44;5028602;28;20049;-69
2021/01/28 00:12:56;;;;;;;10.68;7.40;;;2.70;84.30;;;0.72;84.01;95685.69;5045908;28;20031;-69
2021/01/28 00:15:24;;;;;;;11.63;7.43;;;2.80;84.30;;;0.72;84.71;95683.09;5022645;28;20068;-69
2021/01/28 00:17:50;;;;;;;11.55;7.85;;;2.80;84.40;;;0.73;84.31;95692.50;5043355;28;20406;-68
2021/01/28 00:20:46;;;;;;;10.98;7.72;;;2.80;84.40;;;0.73;85.59;95682.13;5031530;28;20029;-69
2021/01/28 00:23:12;;;;;;;11.27;7.35;;;2.70;84.50;;;0.73;83.76;95687.31;5035228;28;20231;-70
2021/01/28 00:25:38;;;;;;;10.88;7.47;;;2.80;84.40;;;0.74;83.94;95678.59;5042136;28;20432;-69
2021/01/28 00:28:05;;;;;;;13.25;7.97;;;2.80;84.10;;;0.75;84.21;95688.00;5038265;28;20026;-69
2021/01/28 00:30:36;;;;;;;12.05;8.18;;;2.80;84.10;;;0.76;84.23;95687.03;5019959;28;20048;-69
2021/01/28 00:33:02;;;;;;;;;;;2.80;84.30;;;0.75;86.12;95690.56;5016249;28;20047;-69
2021/01/28 00:35:31;;;;;;;12.10;8.15;;;2.80;84.10;;;0.74;84.02;95691.53;5048497;28;20273;-67
2021/01/28 00:37:57;;;;;;;11.38;8.10;;;2.70;84.30;;;0.75;84.28;95685.41;5050516;28;20024;-67
2021/01/28 00:40:24;;;;;;;10.90;7.40;;;2.70;84.40;;;0.73;83.92;95682.13;5061086;28;20029;-67
2021/01/28 00:42:49;;;;;;;11.85;7.72;;;2.80;84.30;;;0.76;84.17;95676.69;5048232;28;20033;-66
2021/01/28 00:45:20;;;;;;;11.02;7.55;;;2.80;84.20;;;0.76;83.94;95682.66;5064497;28;20567;-67
2021/01/28 00:47:46;;;;;;;;;;;2.80;83.90;;;0.76;85.79;95677.50;5050970;28;20155;-67
2021/01/28 00:50:12;;;;;;;10.68;7.53;;;2.80;84.00;;;0.77;83.54;95667.94;5062821;28;19920;-67
2021/01/28 00:52:39;;;;;;;12.57;7.50;;;2.90;83.90;;;0.77;83.73;95668.78;5061216;28;20025;-67
2021/01/28 00:55:07;;;;;;;10.77;7.80;;;2.90;83.80;;;0.77;84.22;95673.94;5047742;28;20163;-69
2021/01/28 00:57:32;;;;;;;11.02;7.82;;;2.90;83.80;;;0.75;84.20;95675.88;5053119;28;20606;-67
2021/01/28 00:59:58;;;;;;;10.35;7.25;;;2.80;84.10;;;0.77;83.59;95673.94;5047436;28;20033;-66
2021/01/28 01:02:24;;;;;;;11.20;7.80;;;2.90;84.00;;;0.79;83.61;95672.03;5066145;28;20150;-67
2021/01/28 01:04:50;;;;;;;12.32;8.40;;;2.90;83.70;;;0.81;84.40;95679.66;5054460;28;20044;-67
2021/01/28 01:07:16;;;;;;;11.18;7.65;;;2.90;83.60;;;0.80;84.03;95678.03;5068249;28;20040;-68
2021/01/28 01:09:41;;;;;;;10.85;7.78;;;2.90;83.80;;;0.82;83.54;95678.69;5066599;28;20036;-69
2021/01/28 01:12:07;;;;;;;12.05;7.95;;;2.90;83.80;;;0.82;83.72;95676.13;5062843;28;20485;-67
2021/01/28 01:14:33;;;;;;;11.05;7.55;;;2.90;83.80;;;0.83;83.78;95668.19;5067745;28;20679;-68
2021/01/28 01:16:58;;;;;;;10.10;7.10;;;2.90;83.60;;;0.81;83.89;95664.13;5068156;28;20542;-67
2021/01/28 01:19:24;;;;;;;10.35;7.55;;;3.00;83.50;;;0.86;84.18;95667.09;5048750;28;20040;-67
2021/01/28 01:21:50;;;;;;;9.40;7.25;;;2.90;83.50;;;0.85;84.15;95670.66;5059639;28;20123;-66
2021/01/28 01:24:16;;;;;;;9.63;7.00;;;3.00;83.50;;;0.87;83.45;95685.09;5066531;28;20115;-67
2021/01/28 01:26:42;;;;;;;11.80;8.00;;;3.00;83.40;;;0.88;84.28;95688.50;5050145;28;20115;-67
2021/01/28 01:29:08;;;;;;;11.15;8.40;;;2.90;83.70;;;0.88;84.44;95683.31;5063483;28;20036;-67
2021/01/28 01:31:34;;;;;;;11.02;7.35;;;2.90;83.60;;;0.89;84.11;95684.94;5067149;28;20035;-66
2021/01/28 01:33:59;;;;;;;10.93;7.53;;;3.00;83.40;;;0.89;83.75;95674.59;5049214;28;20037;-67
2021/01/28 01:36:25;;;;;;;11.55;7.75;;;3.00;83.30;;;0.90;83.56;95686.56;5049303;28;20029;-67
2021/01/28 01:38:51;;;;;;;10.73;7.22;;;3.00;83.30;;;0.89;83.66;95672.81;5053389;28;20044;-66
2021/01/28 01:41:17;;;;;;;11.10;7.78;;;3.00;83.10;;;0.90;83.76;95676.22;5029994;28;20094;-66
2021/01/28 01:43:42;;;;;;;11.70;7.85;;;3.00;83.10;;;0.92;84.13;95679.50;5060591;28;20057;-66
2021/01/28 01:46:13;;;;;;;11.10;7.47;;;3.00;83.20;;;0.90;84.39;95668.44;5062758;28;20124;-66
2021/01/28 01:48:46;;;;;;;11.20;7.77;;;3.10;83.20;;;0.91;84.42;95664.94;5030893;28;20025;-66
2021/01/28 01:51:16;;;;;;;10.05;7.28;;;3.00;83.30;;;0.91;83.96;95659.75;5014677;28;20410;-67
2021/01/28 01:53:47;;;;;;;10.52;7.38;;;3.00;83.30;;;0.89;84.19;95651.28;5054917;28;20036;-66
2021/01/28 01:56:33;;;;;;;;;;;3.00;83.30;;;0.91;85.11;95660.56;5033935;28;20155;-67
2021/01/28 01:59:07;;;;;;;10.02;7.00;;;3.10;83.10;;;0.91;83.75;95662.34;5055953;28;19924;-67
2021/01/28 02:01:38;;;;;;;10.57;6.80;;;3.00;83.30;;;0.91;84.39;95659.75;5030714;28;20471;-67
2021/01/28 02:04:04;;;;;;;9.90;7.15;;;3.00;83.40;;;0.90;83.57;95650.31;5012618;28;20028;-66
2021/01/28 02:06:49;;;;;;;9.77;6.57;;;3.00;83.60;;;0.91;85.33;95654.59;5031151;28;20055;-66
2021/01/28 02:09:15;;;;;;;10.65;7.05;;;3.00;83.50;;;0.89;83.92;95640.94;5034555;28;20033;-67
2021/01/28 02:11:42;;;;;;;10.43;7.00;;;3.00;83.40;;;0.91;83.53;95644.22;5044583;28;20391;-66
2021/01/28 02:14:12;;;;;;;10.48;7.43;;;3.00;83.40;;;0.91;84.48;95639.03;5047691;28;20115;-66
2021/01/28 02:16:50;;;;;;;10.23;6.72;;;3.00;83.50;;;0.91;84.26;95639.88;5044434;28;20767;-67
2021/01/28 02:20:08;;;;;;;9.90;6.82;;;3.00;83.60;;;0.93;85.10;95634.53;5046435;28;20037;-66
2021/01/28 02:23:10;;;;;;;9.27;6.70;;;3.00;83.50;;;0.94;85.73;95638.75;5046850;28;20044;-66
2021/01/28 02:25:37;;;;;;;9.43;6.72;;;3.10;83.40;;;0.92;83.79;95630.31;5050470;28;20040;-66
2021/01/28 02:28:06;;;;;;;9.65;6.40;;;3.10;83.60;;;0.95;83.94;95634.41;5049187;28;20032;-67
2021/01/28 02:30:32;;;;;;;9.02;6.07;;;2.90;83.90;;;0.93;83.64;95631.13;5058240;28;20036;-66
2021/01/28 02:32:58;;;;;;;7.82;5.68;;;3.00;83.90;;;0.95;83.71;95627.44;5068281;28;20051;-67
2021/01/28 02:35:27;;;;;;;9.43;6.38;;;3.10;83.50;;;0.97;84.31;95622.13;5059934;28;20563;-66
2021/01/28 02:37:54;;;;;;;8.65;6.03;;;3.10;83.50;;;0.97;84.14;95622.94;5049994;28;20044;-66
2021/01/28 02:40:23;;;;;;;9.23;6.28;;;3.10;83.60;;;0.96;83.91;95616.13;5056570;28;20127;-66
2021/01/28 02:42:48;;;;;;;8.50;5.90;;;3.00;83.70;;;0.96;83.93;95626.47;5050078;28;20443;-67
2021/01/28 02:45:33;;;;;;;7.90;5.60;;;3.00;83.90;;;0.96;84.46;95621.31;5045282;28;20060;-66
2021/01/28 02:48:05;;;;;;;7.95;5.50;;;2.90;84.10;;;0.94;84.08;95617.22;5060481;28;20082;-66
2021/01/28 02:50:31;;;;;;;9.43;6.13;;;2.90;84.40;;;0.91;84.33;95621.72;5059816;28;20064;-67
2021/01/28 02:53:00;;;;;;;10.25;6.68;;;2.90;84.50;;;0.92;84.49;95614.78;5033984;28;20087;-66
2021/01/28 02:55:28;;;;;;;9.27;6.05;;;2.90;84.40;;;0.93;84.55;95621.59;5066010;28;20036;-66
2021/01/28 02:57:54;;;;;;;8.93;5.85;;;2.90;84.40;;;0.94;83.69;95617.22;5060980;28;20048;-66
2021/01/28 03:00:29;;;;;;;8.25;5.78;;;3.00;84.40;;;0.91;84.85;95610.56;5073039;28;20112;-66
2021/01/28 03:02:55;;;;;;;9.15;5.88;;;3.00;84.50;;;0.91;84.52;95608.78;5052728;28;20045;-67
2021/01/28 03:05:21;;;;;;;9.77;6.25;;;2.90;84.50;;;0.92;84.28;95604.44;5051489;28;20028;-66
2021/01/28 03:07:47;;;;;;;9.80;5.65;;;2.90;84.60;;;0.92;84.10;95604.44;5050016;28;20037;-66
2021/01/28 03:10:13;;;;;;;9.38;5.88;;;2.90;84.50;;;0.93;84.35;95600.88;5079617;28;20029;-66
2021/01/28 03:12:38;;;;;;;8.70;5.85;;;2.90;84.50;;;0.94;84.93;95596.53;5065779;28;20089;-67
2021/01/28 03:15:08;;;;;;;8.60;5.70;;;2.90;84.40;;;0.93;84.78;95595.69;5063421;28;20040;-67
2021/01/28 03:17:33;;;;;;;9.75;6.07;;;2.90;84.70;;;0.94;84.76;95597.34;5055225;28;20032;-66
2021/01/28 03:19:59;;;;;;;7.90;5.18;;;3.00;84.60;;;0.96;84.31;95595.41;5050626;28;20037;-66
2021/01/28 03:22:25;;;;;;;8.38;5.60;;;3.00;84.30;;;0.96;84.36;95584.25;5047200;28;20035;-67
2021/01/28 03:24:50;;;;;;;8.52;5.72;;;3.00;84.40;;;0.96;84.12;95579.88;5046090;28;20064;-66
2021/01/28 03:27:17;;;;;;;9.05;5.75;;;3.00;84.50;;;0.98;84.55;95575.38;5060880;28;20043;-67
2021/01/28 03:29:43;;;;;;;8.70;5.97;;;3.00;84.50;;;0.99;84.27;95564.06;5065610;28;20036;-66
2021/01/28 03:32:08;;;;;;;8.98;5.43;;;3.00;84.50;;;1.00;84.63;95560.50;5065447;28;20450;-66
2021/01/28 03:34:35;;;;;;;7.88;5.57;;;3.10;84.30;;;0.96;84.02;95555.75;5062666;28;20606;-66
2021/01/28 03:37:01;;;;;;;9.15;5.60;;;3.10;84.20;;;1.02;84.70;95563.75;5065560;28;20051;-66
2021/01/28 03:39:27;;;;;;;8.02;5.53;;;3.10;83.90;;;1.04;84.65;95568.78;5064685;28;20169;-67
2021/01/28 03:41:53;;;;;;;8.70;5.53;;;3.10;83.90;;;1.05;85.02;95573.00;5065675;28;20037;-66
2021/01/28 03:44:19;;;;;;;8.65;5.72;;;3.10;83.90;;;1.04;83.80;95556.66;5048626;28;20120;-69
2021/01/28 03:46:44;;;;;;;8.35;5.72;;;3.10;84.10;;;1.05;84.44;95566.06;5060799;28;20029;-67
2021/01/28 03:49:10;;;;;;;8.57;5.47;;;3.10;84.20;;;1.05;84.11;95565.25;5065665;28;20025;-66
2021/01/28 03:51:36;;;;;;;7.93;5.50;;;3.10;83.90;;;1.06;84.36;95559.91;5055555;28;20118;-67
2021/01/28 03:54:01;;;;;;;8.80;5.90;;;3.10;84.00;;;1.05;84.22;95555.69;5063264;28;20052;-67
2021/01/28 03:56:27;;;;;;;9.68;6.65;;;3.10;84.10;;;1.04;84.17;95551.47;5075754;28;20033;-66
2021/01/28 03:58:53;;;;;;;9.90;5.50;;;3.10;84.00;;;1.05;85.05;95558.28;5078569;28;20044;-67
2021/01/28 04:01:19;;;;;;;9.32;6.25;;;3.10;84.00;;;1.06;84.55;95548.75;5045763;28;20043;-66
2021/01/28 04:03:44;;;;;;;9.48;5.55;;;3.10;84.20;;;1.05;84.61;95541.94;5048646;28;20028;-67
2021/01/28 04:06:11;;;;;;;8.80;5.68;;;3.10;84.00;;;1.08;84.85;95542.47;5056135;28;20037;-66
2021/01/28 04:08:36;;;;;;;9.20;5.65;;;3.10;84.00;;;1.10;83.83;95534.53;5055978;28;20039;-66
2021/01/28 04:11:02;;;;;;;10.52;6.20;;;3.10;84.00;;;1.08;84.79;95526.91;5065439;28;20041;-66
2021/01/28 04:13:28;;;;;;;8.55;5.43;;;3.10;83.90;;;1.09;84.30;95523.38;5064349;28;20450;-67
2021/01/28 04:15:54;;;;;;;9.90;5.78;;;3.30;83.60;;;1.12;84.66;95530.84;5046586;28;20427;-67
2021/01/28 04:18:20;;;;;;;9.18;5.72;;;3.20;83.50;;;1.14;84.82;95525.56;5066158;28;20662;-66
2021/01/28 04:20:45;;;;;;;9.13;5.13;;;3.40;83.40;;;1.14;84.57;95521.19;5061220;28;20500;-66
2021/01/28 04:23:11;;;;;;;10.68;6.05;;;3.40;83.30;;;1.13;84.22;95513.53;5046775;28;20044;-67
2021/01/28 04:25:37;;;;;;;8.18;5.50;;;3.40;83.10;;;1.15;83.99;95512.44;5039681;28;20035;-67
2021/01/28 04:28:03;;;;;;;8.93;5.65;;;3.30;83.30;;;1.16;84.39;95519.25;5033255;28;20078;-67
2021/01/28 04:30:31;;;;;;;7.55;5.05;;;3.20;83.60;;;1.17;84.73;95510.53;5016032;28;20028;-67
2021/01/28 04:32:57;;;;;;;9.25;5.25;;;3.30;83.50;;;1.16;84.75;95506.31;5068152;28;20058;-65
2021/01/28 04:35:23;;;;;;;8.60;5.45;;;3.40;83.30;;;1.19;84.15;95506.00;5048035;28;20041;-66
2021/01/28 04:37:49;;;;;;;8.98;5.65;;;3.40;83.30;;;1.19;84.25;95502.63;5046180;28;20041;-66
2021/01/28 04:40:29;;;;;;;8.65;5.85;;;3.40;83.30;;;1.22;85.58;95503.13;5041899;28;20460;-65
2021/01/28 04:42:56;;;;;;;8.13;5.22;;;3.50;83.20;;;1.23;84.77;95496.97;5055752;28;20338;-66
2021/01/28 04:45:24;;;;;;;8.20;5.22;;;3.40;83.30;;;1.25;85.15;95485.66;5027824;28;20587;-68
2021/01/28 04:47:54;;;;;;;7.78;5.35;;;3.50;83.20;;;1.27;84.62;95481.16;5024339;28;20044;-67
2021/01/28 04:50:24;;;;;;;7.93;5.13;;;3.50;82.90;;;1.27;84.77;95474.19;5049541;28;20040;-68
2021/01/28 04:52:50;;;;;;;8.65;5.57;;;3.50;82.90;;;1.30;84.72;95475.66;5060636;28;20409;-67
2021/01/28 04:55:16;;;;;;;9.13;5.65;;;3.50;83.40;;;1.30;84.57;95467.91;5034695;28;20041;-67
2021/01/28 04:57:43;;;;;;;8.13;5.40;;;3.50;83.00;;;1.33;84.27;95454.63;5028940;28;20068;-67
2021/01/28 05:00:09;;;;;;;9.63;5.10;;;3.60;82.90;;;1.31;84.16;95447.03;5062788;28;20550;-67
2021/01/28 05:02:35;;;;;;;9.82;6.30;;;3.60;82.80;;;1.33;84.14;95441.69;5055394;28;20416;-67
2021/01/28 05:05:05;;;;;;;9.85;5.55;;;3.60;82.80;;;1.33;84.51;95436.50;5058472;28;20060;-68
2021/01/28 05:07:36;;;;;;;7.90;4.93;;;3.60;82.80;;;1.33;84.77;95420.97;5058866;28;20032;-67
2021/01/28 05:10:35;;;;;;;8.32;5.70;;;3.60;82.90;;;1.34;85.32;95420.81;5048635;28;20041;-67
2021/01/28 05:13:01;;;;;;;7.53;4.82;;;3.50;83.10;;;1.34;84.17;95414.81;5068090;28;20033;-68
2021/01/28 05:15:47;;;;;;;7.00;4.93;;;3.50;82.90;;;1.33;85.65;95406.22;5068646;28;20078;-67
2021/01/28 05:19:00;;;;;;;8.40;5.35;;;3.60;82.90;;;1.32;85.81;95404.59;5067246;28;20024;-68
2021/01/28 05:21:28;;;;;;;8.20;5.45;;;3.60;82.90;;;1.31;85.08;95408.16;5022848;28;20508;-69
2021/01/28 05:24:04;;;;;;;8.02;4.97;;;3.60;82.80;;;1.30;85.16;95401.34;5034030;28;20093;-68
2021/01/28 05:26:42;;;;;;;8.50;5.60;;;3.50;83.00;;;1.30;85.11;95395.34;5058652;28;20032;-67
2021/01/28 05:29:15;;;;;;;11.35;5.70;;;3.50;83.20;;;1.30;84.88;95385.00;5030858;28;20037;-68
2021/01/28 05:31:41;;;;;;;8.32;5.78;;;3.50;83.30;;;1.28;84.73;95376.56;5049117;28;20064;-67
2021/01/28 05:34:10;;;;;;;7.80;5.03;;;3.50;83.50;;;1.28;84.40;95382.56;5067305;28;20385;-67
2021/01/28 05:36:36;;;;;;;8.30;5.15;;;3.40;83.70;;;1.29;84.60;95373.00;5049956;28;20496;-67
2021/01/28 05:39:25;;;;;;;8.13;5.03;;;3.50;83.60;;;1.31;86.03;95373.66;5020281;28;20459;-68
2021/01/28 05:41:52;;;;;;;8.10;5.20;;;3.50;83.40;;;1.30;84.96;95369.44;5048244;28;21174;-67
2021/01/28 05:44:31;;;;;;;7.88;5.05;;;3.50;83.60;;;1.29;86.06;95360.88;5015010;28;20119;-67
2021/01/28 05:47:02;;;;;;;10.55;5.93;;;3.50;83.70;;;1.31;85.45;95360.72;5030531;28;20408;-68
2021/01/28 05:49:28;;;;;;;10.20;5.50;;;3.50;83.90;;;1.33;84.85;95359.59;5030912;28;20551;-68
2021/01/28 05:51:54;;;;;;;10.25;5.15;;;3.60;83.80;;;1.33;84.71;95349.22;5049515;28;20048;-67
2021/01/28 05:54:23;;;;;;;8.02;4.55;;;3.60;83.80;;;1.35;85.70;95347.31;5052676;28;20049;-67
2021/01/28 05:57:28;;;;;;;7.03;4.88;;;3.60;83.90;;;1.35;86.81;95349.09;5047127;28;20033;-68
2021/01/28 06:00:03;;;;;;;7.15;4.60;;;3.50;84.10;;;1.37;85.67;95344.59;5049476;28;20044;-68
2021/01/28 06:02:56;;;;;;;8.20;5.03;;;3.50;84.50;;;1.36;86.23;95343.78;5061341;28;20033;-67
2021/01/28 06:06:14;;;;;;;7.95;5.15;;;3.50;84.50;;;1.38;86.38;95352.22;5054455;28;20550;-64
2021/01/28 06:09:14;;;;;;;13.75;7.65;;;3.50;84.60;;;1.41;86.14;95358.88;5039399;28;20124;-64
2021/01/28 06:12:07;;;;;;;8.82;5.43;;;3.60;84.40;;;1.43;87.07;95356.94;5049447;28;20028;-65
2021/01/28 06:15:22;;;;;;;7.68;4.97;;;3.60;84.90;;;1.44;87.12;95349.00;5056717;28;20462;-68
2021/01/28 06:18:30;;;;;;;7.53;4.78;;;3.60;84.80;;;1.47;86.54;95345.31;5057358;28;20044;-68
2021/01/28 06:21:05;;;;;;;6.55;4.47;;;3.60;84.70;;;1.50;85.76;95339.81;5051097;28;20044;-68
2021/01/28 06:24:11;;;;;;;9.05;4.97;;;3.70;84.30;;;1.52;87.21;95332.69;5066433;28;20036;-64
2021/01/28 06:27:12;;;;;;;8.00;4.13;;;3.70;84.30;;;1.53;85.99;95318.78;5041592;28;20094;-65
2021/01/28 06:30:31;;;;;;;10.88;4.55;;;3.70;84.50;;;1.53;87.38;95318.78;5050010;28;20036;-67
2021/01/28 06:33:29;;;;;;;7.57;4.85;;;3.60;85.00;;;1.54;85.65;95315.22;5064769;28;20036;-69
2021/01/28 06:36:20;;;;;;;5.82;3.78;;;3.60;85.10;;;1.56;86.70;95312.47;5056643;28;20525;-68
2021/01/28 06:39:03;;;;;;;;;;;3.70;85.00;;;1.57;86.98;95314.91;5041231;28;20465;-63
2021/01/28 06:41:32;;;;;;;7.13;4.53;;;3.60;85.30;;;1.56;85.83;95318.47;5069012;28;19959;-65
2021/01/28 06:44:37;;;;;;;6.10;4.07;;;3.60;85.60;;;1.58;87.25;95306.16;5037371;28;20114;-64
2021/01/28 06:47:20;;;;;;;6.20;4.15;;;3.60;85.50;;;1.60;86.70;95301.66;5045216;28;20047;-66
2021/01/28 06:49:56;;;;;;;6.28;4.13;;;3.60;85.50;;;1.61;86.44;95305.88;5048187;28;20040;-67
2021/01/28 06:52:27;;;;;;;6.40;4.25;;;3.60;85.50;;;1.64;86.25;95309.94;5055864;28;20037;-68
2021/01/28 06:55:06;;;;;;;;;;;3.60;85.40;;;1.64;87.20;95300.38;5074649;28;20044;-67
2021/01/28 06:57:52;;;;;;;6.10;3.80;;;3.70;85.30;;;1.66;87.00;95295.84;5048767;28;19919;-66
2021/01/28 07:00:35;;;;;;;6.22;3.80;;;3.80;85.40;;;1.68;86.70;95288.72;5057766;28;20035;-66
2021/01/28 07:03:30;;;;;;;5.00;3.50;;;3.80;85.30;;;1.73;86.21;95288.28;5049873;28;20108;-67
2021/01/28 07:06:37;;;;;;;5.82;3.85;;;3.90;85.00;;;1.74;87.50;95295.88;5067558;28;20043;-68
2021/01/28 07:09:18;;;;;;;5.65;3.88;;;3.90;85.00;;;1.78;86.30;95286.03;5065229;28;20510;-65
2021/01/28 07:11:44;;;;;;;8.25;5.25;;;3.90;85.00;;;1.82;85.69;95287.34;5049447;28;20024;-66
2021/01/28 07:14:17;;;;;;;6.82;3.78;;;3.90;85.10;;;1.84;85.86;95294.00;5067826;28;20044;-69
2021/01/28 07:16:52;;;;;;;5.97;3.85;;;4.00;85.00;;;1.87;85.76;95287.69;5034060;28;20040;-66
2021/01/28 07:19:55;;;;;;;5.68;3.85;;;4.10;85.10;;;1.91;86.70;95283.81;5070836;28;20036;-65
2021/01/28 07:22:36;;;;;;;6.95;3.63;;;4.10;84.90;;;1.94;86.82;95274.91;5033583;28;20605;-64
2021/01/28 07:25:24;;;;;;;6.15;3.38;;;4.10;84.90;;;1.97;86.66;95272.81;5051118;28;20071;-64
2021/01/28 07:28:05;;;;;;;5.68;3.75;;;4.10;84.90;;;1.98;86.81;95271.03;5059898;28;20392;-67
2021/01/28 07:31:11;;;;;;;7.13;4.28;;;4.10;85.00;;;2.01;86.39;95268.13;5042858;28;20059;-67
2021/01/28 07:33:56;;;;;;;21.25;7.88;;;4.10;84.90;;;2.01;86.32;95255.97;5044092;28;20401;-62
2021/01/28 07:36:25;;;;;;;46.17;17.73;;;4.10;85.30;;;2.02;86.06;95243.81;5057802;28;20060;-64
2021/01/28 07:38:58;;;;;;;21.38;10.90;;;4.10;85.40;;;1.99;86.68;95247.53;5068816;28;20032;-65
2021/01/28 07:41:53;;;;;;;73.57;28.48;;;4.10;85.50;;;2.04;87.38;95250.50;5066792;28;20031;-64
2021/01/28 07:44:24;;;;;;;137.55;47.45;;;4.20;85.30;;;2.08;86.90;95246.63;5057964;28;20379;-65
2021/01/28 07:46:51;;;;;;;72.10;29.58;;;4.30;85.30;;;2.13;85.84;95244.34;5066897;28;20504;-65
2021/01/28 07:49:28;;;;;;;20.88;11.02;;;4.40;85.20;;;2.19;86.51;95237.72;5067043;28;20048;-65
2021/01/28 07:52:03;;;;;;;8.20;6.80;;;4.50;84.50;;;2.20;86.36;95241.13;5048518;28;20033;-64
2021/01/28 07:54:28;;;;;;;8.45;6.50;;;4.30;84.70;;;2.22;85.31;95234.78;5066919;28;20531;-65
2021/01/28 07:57:12;;;;;;;10.07;8.23;;;4.40;84.50;;;2.25;86.98;95231.06;5066705;28;20047;-64
2021/01/28 07:59:47;;;;;;;11.48;8.70;;;4.40;84.60;;;2.26;85.87;95225.72;5069026;28;20029;-64
2021/01/28 08:02:36;;;;;;;7.70;5.30;;;4.40;84.60;;;2.27;87.16;95217.00;5088999;28;20028;-63
2021/01/28 08:05:04;;;;;;;7.35;5.72;;;4.50;84.60;;;2.30;85.91;95219.25;5064751;28;20033;-64
2021/01/28 08:07:34;;;;;;;8.55;5.03;;;4.50;84.70;;;2.33;85.97;95213.75;5058980;28;20040;-66
2021/01/28 08:10:22;;;;;;;17.08;10.45;;;4.60;84.60;;;2.37;86.51;95214.25;5070538;28;20186;-64
2021/01/28 08:12:57;;;;;;;21.23;11.13;;;4.60;84.60;;;2.42;86.87;95207.59;5070476;28;20032;-64
2021/01/28 08:15:40;;;;;;;16.75;6.85;;;4.70;84.30;;;2.49;87.13;95212.13;5056245;28;20040;-63
2021/01/28 08:18:21;;;;;;;12.45;7.30;;;4.80;83.80;;;2.56;86.81;95207.94;5032603;28;20106;-64
2021/01/28 08:20:47;;;;;;;;;;;4.90;83.60;;;2.60;86.99;95196.25;5061509;28;20108;-63
2021/01/28 08:23:25;;;;;;;19.40;9.82;;;5.00;83.40;;;2.64;86.16;95200.13;5071368;28;20003;-63
2021/01/28 08:26:01;;;;;;;14.15;7.40;;;5.00;83.30;;;2.69;86.17;95192.66;5072102;28;20024;-63
2021/01/28 08:28:29;;;;;;;9.88;4.32;;;5.10;83.30;;;2.72;86.05;95174.19;5070487;28;20119;-64
2021/01/28 08:31:25;;;;;;;6.85;4.25;;;5.10;83.20;;;2.76;87.01;95178.09;5062422;28;20131;-65
2021/01/28 08:34:02;;;;;;;6.82;3.03;;;5.10;83.10;;;2.79;86.29;95175.16;5042224;28;20068;-65
2021/01/28 08:36:43;;;;;;;8.02;3.55;;;5.20;83.00;;;2.83;85.74;95168.66;5053119;28;20079;-65
2021/01/28 08:39:24;;;;;;;7.53;3.45;;;5.20;83.00;;;2.88;86.48;95155.97;5055075;28;20036;-66
2021/01/28 08:42:03;;;;;;;14.40;6.32;;;5.30;82.80;;;2.95;86.25;95149.16;5067099;28;20033;-65
2021/01/28 08:44:29;;;;;;;7.20;3.85;;;5.40;82.40;;;3.01;85.69;95153.69;5053153;28;20044;-64
2021/01/28 08:47:21;;;;;;;9.07;3.22;;;5.50;82.30;;;3.07;86.46;95145.22;5059850;28;20077;-64
2021/01/28 08:50:05;;;;;;;7.07;3.15;;;5.50;82.30;;;3.14;86.06;95134.16;5069885;28;20045;-63
2021/01/28 08:52:31;;;;;;;14.02;7.22;;;5.60;82.20;;;3.18;85.27;95127.69;5072342;28;20024;-63
2021/01/28 08:54:57;;;;;;;31.02;18.02;;;5.60;82.50;;;3.25;85.69;95131.22;5053021;28;20098;-63
2021/01/28 08:57:24;;;;;;;8.15;3.92;;;5.70;82.60;;;3.31;85.45;95120.16;5068258;28;20064;-64
2021/01/28 09:00:00;;;;;;;6.30;3.20;;;5.70;81.70;;;3.35;85.41;95117.03;5084962;28;20036;-64
2021/01/28 09:02:40;;;;;;;8.40;2.60;;;5.80;81.50;;;3.40;85.68;95119.16;5033680;28;20025;-64
2021/01/28 09:05:33;;;;;;;6.03;3.00;;;5.80;81.50;;;3.44;85.58;95120.44;5032285;28;20128;-64
2021/01/28 09:08:06;;;;;;;7.90;2.80;;;5.80;81.40;;;3.47;85.29;95111.50;5065812;28;20046;-66
2021/01/28 09:10:40;;;;;;;4.63;2.42;;;5.80;81.20;;;3.47;85.01;95109.69;5067776;28;20035;-64
2021/01/28 09:13:24;;;;;;;7.10;2.40;;;5.80;81.50;;;3.53;85.25;95111.63;5074177;28;20162;-64
2021/01/28 09:16:15;;;;;;;12.85;4.13;;;5.80;81.60;;;3.54;85.04;95100.25;5078578;28;20037;-65
2021/01/28 09:18:49;;;;;;;7.10;2.58;;;5.80;81.70;;;3.57;85.03;95094.69;5049738;28;20108;-64
2021/01/28 09:21:19;;;;;;;5.57;2.50;;;5.70;81.70;;;3.54;84.91;95100.25;5068044;28;20032;-66
2021/01/28 09:24:04;;;;;;;7.68;2.40;;;5.70;82.10;;;3.53;85.21;95101.22;5033010;28;20175;-67
2021/01/28 09:26:35;;;;;;;6.22;2.95;;;5.60;82.40;;;3.54;84.54;95102.03;5036530;28;20059;-66
2021/01/28 09:29:22;;;;;;;16.95;7.50;;;5.60;82.60;;;3.52;85.43;95102.19;5036581;28;20036;-68
2021/01/28 09:31:50;;;;;;;6.10;3.13;;;5.60;83.00;;;3.52;84.73;95091.81;5086867;28;20566;-64
2021/01/28 09:34:26;;;;;;;6.35;2.35;;;5.60;82.90;;;3.52;85.37;95086.59;5069539;28;20036;-64
2021/01/28 09:37:14;;;;;;;6.47;2.13;;;5.60;82.90;;;3.51;85.47;95084.16;5068411;28;20485;-64
2021/01/28 09:39:48;;;;;;;5.57;1.80;;;5.60;82.90;;;3.51;85.16;95074.59;5048795;28;20043;-66
2021/01/28 09:42:21;;;;;;;5.03;1.70;;;5.60;83.30;;;3.50;85.42;95075.56;5067014;28;20040;-65
2021/01/28 09:44:49;;;;;;;6.22;1.40;;;5.60;83.20;;;3.51;84.81;95069.38;5060613;28;20036;-64
2021/01/28 09:47:25;;;;;;;6.45;1.77;;;5.60;83.20;;;3.49;85.18;95066.16;5056673;28;20128;-65
2021/01/28 09:49:54;;;;;;;3.70;1.60;;;5.50;83.50;;;3.46;84.96;95055.28;5058001;28;20525;-64
2021/01/28 09:52:35;;;;;;;1.75;1.05;;;5.40;83.80;;;3.45;85.60;95051.06;5074465;28;20411;-64
2021/01/28 09:55:16;;;;;;;4.63;1.10;;;5.40;83.90;;;3.45;85.60;95043.28;5048478;28;20532;-66
2021/01/28 09:57:41;;;;;;;2.08;0.85;;;5.40;84.40;;;3.44;84.98;95045.06;5057746;28;20415;-65
2021/01/28 10:00:11;;;;;;;1.95;1.10;;;5.40;84.40;;;3.42;85.32;95030.63;5052502;28;20112;-65
2021/01/28 10:03:16;;;;;;;2.03;1.10;;;5.30;84.60;;;3.39;86.28;95021.34;5067231;28;20066;-65
2021/01/28 10:05:42;;;;;;;3.55;1.00;;;5.20;84.90;;;3.39;85.20;95013.56;5022995;28;20123;-65
2021/01/28 10:08:08;;;;;;;1.67;0.63;;;5.20;85.20;;;3.38;84.96;95012.75;5051464;28;20111;-66
2021/01/28 10:10:34;;;;;;;1.50;0.88;;;5.20;85.10;;;3.39;85.26;95008.34;5070265;28;20052;-65
2021/01/28 10:13:04;;;;;;;1.73;1.00;;;5.20;85.10;;;3.38;85.54;95004.13;5069593;28;20033;-64
2021/01/28 10:15:30;;;;;;;2.45;0.88;;;5.20;85.20;;;3.41;85.14;95003.00;5052317;28;20052;-63
2021/01/28 10:17:56;;;;;;;4.40;0.50;;;5.30;85.00;;;3.41;85.06;94996.03;5069543;28;20078;-65
2021/01/28 10:20:21;;;;;;;3.17;0.98;;;5.30;84.90;;;3.43;85.36;94978.47;5044603;28;20039;-64
2021/01/28 10:22:47;;;;;;;2.80;0.60;;;5.40;84.90;;;3.44;85.27;94980.06;5047222;28;20082;-65
2021/01/28 10:25:15;;;;;;;1.45;0.50;;;5.40;84.80;;;3.45;85.78;94970.50;5067764;28;20104;-62
2021/01/28 10:27:40;;;;;;;1.02;0.40;;;5.40;85.00;;;3.44;85.40;94967.09;5066596;28;20033;-64
2021/01/28 10:30:08;;;;;;;4.35;0.68;;;5.30;85.10;;;3.46;85.44;94962.50;5064972;28;20033;-65
2021/01/28 10:32:33;;;;;;;2.55;0.73;;;5.40;84.90;;;3.46;85.39;94952.13;5081764;28;20036;-64
2021/01/28 10:34:59;;;;;;;1.73;0.40;;;5.30;85.10;;;3.47;85.72;94943.34;5067868;28;20047;-65
2021/01/28 10:37:25;;;;;;;1.38;0.40;;;5.40;85.10;;;3.48;85.55;94944.94;5036500;28;20124;-64
2021/01/28 10:39:51;;;;;;;1.38;0.60;;;5.40;85.00;;;3.52;85.29;94933.22;5067587;28;20028;-64
2021/01/28 10:42:31;;;;;;;1.85;0.30;;;5.50;84.80;;;3.54;86.15;94933.84;5059831;28;20047;-65
2021/01/28 10:44:57;;;;;;;0.40;0.30;;;5.50;84.90;;;3.57;85.32;94930.91;5052786;28;20036;-65
2021/01/28 10:47:23;;;;;;;1.33;0.60;;;5.60;84.60;;;3.61;85.38;94926.97;5065506;28;20141;-65
2021/01/28 10:49:49;;;;;;;0.68;0.38;;;5.60;84.50;;;3.64;85.45;94931.84;5067862;28;20032;-66
2021/01/28 10:52:14;;;;;;;1.00;0.40;;;5.70;84.30;;;3.67;85.34;94917.69;5066983;28;20450;-64
2021/01/28 10:54:41;;;;;;;2.72;0.90;;;5.60;84.20;;;3.68;85.49;94925.31;5069263;28;20040;-64
2021/01/28 10:57:06;;;;;;;0.95;0.40;;;5.60;84.40;;;3.69;85.12;94921.72;5087222;28;20451;-66
2021/01/28 10:59:32;;;;;;;3.10;0.52;;;5.60;84.60;;;3.69;85.19;94919.13;5069744;28;20036;-66